sensor_id;sensor_type;location;lat;lon;timestamp;pressure;altitude;pressure_sealevel;temperature;humidity
8075;BME280;4080;42.676;23.372;2022-10-31T00:01:20;95581.19;;;15.75;95.86
8075;BME280;4080;42.676;23.372;2022-10-31T00:03:47;95578.00;;;15.73;95.87
8075;BME280;4080;42.676;23.372;2022-10-31T00:06:14;95580.19;;;15.71;95.62
8075;BME280;4080;42.676;23.372;2022-10-31T00:08:43;95564.06;;;15.58;96.17
8075;BME280;4080;42.676;23.372;2022-10-31T00:11:10;95580.25;;;15.66;96.23
8075;BME280;4080;42.676;23.372;2022-10-31T00:13:37;95571.25;;;15.62;96.93
8075;BME280;4080;42.676;23.372;2022-10-31T00:16:04;95574.16;;;15.61;97.03
8075;BME280;4080;42.676;23.372;2022-10-31T00:18:32;95575.25;;;15.60;97.40
8075;BME280;4080;42.676;23.372;2022-10-31T00:20:59;95577.38;;;15.58;97.47
8075;BME280;4080;42.676;23.372;2022-10-31T00:23:26;95564.00;;;15.44;98.12
8075;BME280;4080;42.676;23.372;2022-10-31T00:25:53;95573.41;;;15.55;98.30
8075;BME280;4080;42.676;23.372;2022-10-31T00:28:20;95573.69;;;15.53;98.63
8075;BME280;4080;42.676;23.372;2022-10-31T00:30:47;95574.00;;;15.52;98.52
8075;BME280;4080;42.676;23.372;2022-10-31T00:33:13;95570.81;;;15.50;98.66
8075;BME280;4080;42.676;23.372;2022-10-31T00:35:41;95571.09;;;15.48;99.00
8075;BME280;4080;42.676;23.372;2022-10-31T00:38:08;95566.66;;;15.44;99.02
8075;BME280;4080;42.676;23.372;2022-10-31T00:40:35;95574.84;;;15.47;99.35
8075;BME280;4080;42.676;23.372;2022-10-31T00:43:01;95567.94;;;15.46;99.29
8075;BME280;4080;42.676;23.372;2022-10-31T00:45:28;95574.13;;;15.42;99.24
8075;BME280;4080;42.676;23.372;2022-10-31T00:47:55;95533.75;;;15.16;99.52
8075;BME280;4080;42.676;23.372;2022-10-31T00:50:21;95572.59;;;15.36;99.54
8075;BME280;4080;42.676;23.372;2022-10-31T00:52:49;95568.41;;;15.30;99.93
8075;BME280;4080;42.676;23.372;2022-10-31T00:55:16;95565.81;;;15.25;100.00
8075;BME280;4080;42.676;23.372;2022-10-31T00:57:46;95581.25;;;15.22;100.00
8075;BME280;4080;42.676;23.372;2022-10-31T01:00:13;95578.13;;;15.15;100.00
8075;BME280;4080;42.676;23.372;2022-10-31T01:02:40;95574.44;;;14.87;100.00
8075;BME280;4080;42.676;23.372;2022-10-31T01:05:07;95585.03;;;14.58;100.00
8075;BME280;4080;42.676;23.372;2022-10-31T01:07:35;95582.88;;;14.26;100.00
8075;BME280;4080;42.676;23.372;2022-10-31T01:10:04;95572.16;;;14.03;100.00
8075;BME280;4080;42.676;23.372;2022-10-31T01:12:36;95590.75;;;13.97;100.00
8075;BME280;4080;42.676;23.372;2022-10-31T01:15:03;95592.94;;;13.85;100.00
8075;BME280;4080;42.676;23.372;2022-10-31T01:17:30;95581.09;;;13.67;100.00
8075;BME280;4080;42.676;23.372;2022-10-31T01:19:57;95583.53;;;13.59;100.00
8075;BME280;4080;42.676;23.372;2022-10-31T01:22:23;95588.59;;;13.45;100.00
8075;BME280;4080;42.676;23.372;2022-10-31T01:24:50;95587.34;;;13.32;100.00
8075;BME280;4080;42.676;23.372;2022-10-31T01:27:18;95594.53;;;13.22;100.00
8075;BME280;4080;42.676;23.372;2022-10-31T01:29:45;95596.38;;;13.11;100.00
8075;BME280;4080;42.676;23.372;2022-10-31T01:32:12;95596.13;;;13.02;100.00
8075;BME280;4080;42.676;23.372;2022-10-31T01:34:39;95594.31;;;12.93;100.00
8075;BME280;4080;42.676;23.372;2022-10-31T01:37:05;95594.31;;;12.88;100.00
8075;BME280;4080;42.676;23.372;2022-10-31T01:39:32;95595.34;;;12.82;100.00
8075;BME280;4080;42.676;23.372;2022-10-31T01:41:59;95594.56;;;12.81;100.00
8075;BME280;4080;42.676;23.372;2022-10-31T01:44:50;95586.09;;;12.84;100.00
8075;BME280;4080;42.676;23.372;2022-10-31T01:47:20;95585.84;;;12.75;100.00
8075;BME280;4080;42.676;23.372;2022-10-31T01:49:50;95606.50;;;12.89;100.00
8075;BME280;4080;42.676;23.372;2022-10-31T01:52:21;95591.13;;;12.86;100.00
8075;BME280;4080;42.676;23.372;2022-10-31T01:54:53;95596.94;;;12.93;100.00
8075;BME280;4080;42.676;23.372;2022-10-31T01:57:23;95590.06;;;12.82;100.00
8075;BME280;4080;42.676;23.372;2022-10-31T01:59:57;95584.78;;;12.71;100.00
8075;BME280;4080;42.676;23.372;2022-10-31T02:02:25;95587.69;;;12.75;100.00
8075;BME280;4080;42.676;23.372;2022-10-31T02:04:54;95588.75;;;12.79;100.00
8075;BME280;4080;42.676;23.372;2022-10-31T02:07:24;95572.34;;;12.77;100.00
8075;BME280;4080;42.676;23.372;2022-10-31T02:09:53;95593.25;;;12.89;100.00
8075;BME280;4080;42.676;23.372;2022-10-31T02:12:22;95585.31;;;12.89;100.00
8075;BME280;4080;42.676;23.372;2022-10-31T02:14:50;95578.69;;;12.86;100.00
8075;BME280;4080;42.676;23.372;2022-10-31T02:17:18;95589.03;;;12.88;100.00
8075;BME280;4080;42.676;23.372;2022-10-31T02:19:51;95593.78;;;12.91;100.00
8075;BME280;4080;42.676;23.372;2022-10-31T02:22:23;95590.59;;;12.89;100.00
8075;BME280;4080;42.676;23.372;2022-10-31T02:25:02;95593.78;;;12.91;100.00
8075;BME280;4080;42.676;23.372;2022-10-31T02:28:01;95595.09;;;12.88;100.00
8075;BME280;4080;42.676;23.372;2022-10-31T02:30:33;95601.44;;;12.92;100.00
8075;BME280;4080;42.676;23.372;2022-10-31T02:33:15;95603.31;;;12.92;100.00
8075;BME280;4080;42.676;23.372;2022-10-31T02:35:53;95591.66;;;12.83;100.00
8075;BME280;4080;42.676;23.372;2022-10-31T02:38:27;95596.94;;;12.83;100.00
8075;BME280;4080;42.676;23.372;2022-10-31T02:41:04;95567.88;;;12.57;100.00
8075;BME280;4080;42.676;23.372;2022-10-31T02:43:38;95611.00;;;12.88;100.00
8075;BME280;4080;42.676;23.372;2022-10-31T02:46:11;95617.06;;;12.84;100.00
8075;BME280;4080;42.676;23.372;2022-10-31T02:48:44;95616.81;;;12.80;100.00
8075;BME280;4080;42.676;23.372;2022-10-31T02:51:12;95621.03;;;12.81;100.00
8075;BME280;4080;42.676;23.372;2022-10-31T02:53:39;95548.28;;;12.38;100.00
8075;BME280;4080;42.676;23.372;2022-10-31T02:56:08;95620.50;;;12.79;100.00
8075;BME280;4080;42.676;23.372;2022-10-31T02:58:40;95609.13;;;12.79;100.00
8075;BME280;4080;42.676;23.372;2022-10-31T03:01:25;95618.13;;;12.83;100.00
8075;BME280;4080;42.676;23.372;2022-10-31T03:04:09;95597.25;;;12.66;100.00
8075;BME280;4080;42.676;23.372;2022-10-31T03:06:45;95613.91;;;12.77;100.00
8075;BME280;4080;42.676;23.372;2022-10-31T03:09:21;95617.59;;;12.81;100.00
8075;BME280;4080;42.676;23.372;2022-10-31T03:11:54;95625.56;;;12.86;100.00
8075;BME280;4080;42.676;23.372;2022-10-31T03:14:28;95449.63;;;11.71;100.00
8075;BME280;4080;42.676;23.372;2022-10-31T03:16:59;95618.66;;;12.85;100.00
8075;BME280;4080;42.676;23.372;2022-10-31T03:19:33;95620.50;;;12.84;100.00
8075;BME280;4080;42.676;23.372;2022-10-31T03:22:04;95618.41;;;12.86;100.00
8075;BME280;4080;42.676;23.372;2022-10-31T03:24:37;95618.13;;;12.83;100.00
8075;BME280;4080;42.676;23.372;2022-10-31T03:27:07;95622.38;;;12.89;100.00
8075;BME280;4080;42.676;23.372;2022-10-31T03:29:37;95623.44;;;12.93;100.00
8075;BME280;4080;42.676;23.372;2022-10-31T03:32:08;95624.50;;;12.92;100.00
8075;BME280;4080;42.676;23.372;2022-10-31T03:34:39;95626.59;;;12.90;100.00
8075;BME280;4080;42.676;23.372;2022-10-31T03:37:09;95618.38;;;12.81;100.00
8075;BME280;4080;42.676;23.372;2022-10-31T03:39:39;95622.91;;;12.75;100.00
8075;BME280;4080;42.676;23.372;2022-10-31T03:42:10;95637.19;;;12.85;100.00
8075;BME280;4080;42.676;23.372;2022-10-31T03:44:38;95637.97;;;12.85;100.00
8075;BME280;4080;42.676;23.372;2022-10-31T03:47:07;95641.44;;;12.86;100.00
8075;BME280;4080;42.676;23.372;2022-10-31T03:49:35;95643.56;;;12.89;100.00
8075;BME280;4080;42.676;23.372;2022-10-31T03:52:09;95645.41;;;12.88;100.00
8075;BME280;4080;42.676;23.372;2022-10-31T03:54:42;95644.09;;;12.86;100.00
8075;BME280;4080;42.676;23.372;2022-10-31T03:57:16;95640.88;;;12.84;100.00
8075;BME280;4080;42.676;23.372;2022-10-31T03:59:47;95650.41;;;12.85;100.00
8075;BME280;4080;42.676;23.372;2022-10-31T04:02:20;95653.06;;;12.74;100.00
8075;BME280;4080;42.676;23.372;2022-10-31T04:04:49;95634.81;;;12.53;100.00
8075;BME280;4080;42.676;23.372;2022-10-31T04:07:20;95654.66;;;12.50;100.00
8075;BME280;4080;42.676;23.372;2022-10-31T04:09:49;95660.47;;;12.42;100.00
8075;BME280;4080;42.676;23.372;2022-10-31T04:12:18;95659.16;;;12.39;100.00
8075;BME280;4080;42.676;23.372;2022-10-31T04:14:47;95658.34;;;12.44;100.00
8075;BME280;4080;42.676;23.372;2022-10-31T04:17:21;95663.38;;;12.46;100.00
8075;BME280;4080;42.676;23.372;2022-10-31T04:19:48;95664.19;;;12.46;100.00
8075;BME280;4080;42.676;23.372;2022-10-31T04:22:15;95664.69;;;12.48;100.00
8075;BME280;4080;42.676;23.372;2022-10-31T04:24:43;95662.06;;;12.38;100.00
8075;BME280;4080;42.676;23.372;2022-10-31T04:27:10;95654.91;;;12.28;100.00
8075;BME280;4080;42.676;23.372;2022-10-31T04:29:37;95659.94;;;12.25;100.00
8075;BME280;4080;42.676;23.372;2022-10-31T04:32:04;95658.34;;;12.34;100.00
8075;BME280;4080;42.676;23.372;2022-10-31T04:34:31;95657.81;;;12.42;100.00
8075;BME280;4080;42.676;23.372;2022-10-31T04:36:57;95658.63;;;12.48;100.00
8075;BME280;4080;42.676;23.372;2022-10-31T04:39:24;95662.06;;;12.53;100.00
8075;BME280;4080;42.676;23.372;2022-10-31T04:41:52;95668.44;;;12.57;100.00
8075;BME280;4080;42.676;23.372;2022-10-31T04:44:19;95670.00;;;12.43;100.00
8075;BME280;4080;42.676;23.372;2022-10-31T04:46:46;95642.97;;;12.10;100.00
8075;BME280;4080;42.676;23.372;2022-10-31T04:49:12;95681.09;;;12.35;100.00
8075;BME280;4080;42.676;23.372;2022-10-31T04:51:39;95637.94;;;12.14;100.00
8075;BME280;4080;42.676;23.372;2022-10-31T04:54:06;95659.66;;;12.31;100.00
8075;BME280;4080;42.676;23.372;2022-10-31T04:56:33;95679.00;;;12.42;100.00
8075;BME280;4080;42.676;23.372;2022-10-31T04:59:01;95688.25;;;12.39;100.00
8075;BME280;4080;42.676;23.372;2022-10-31T05:01:28;95679.78;;;12.27;100.00
8075;BME280;4080;42.676;23.372;2022-10-31T05:03:54;95676.03;;;12.18;100.00
8075;BME280;4080;42.676;23.372;2022-10-31T05:06:21;95674.16;;;12.08;100.00
8075;BME280;4080;42.676;23.372;2022-10-31T05:08:48;95681.03;;;12.15;100.00
8075;BME280;4080;42.676;23.372;2022-10-31T05:11:14;95685.88;;;12.38;100.00
8075;BME280;4080;42.676;23.372;2022-10-31T05:13:41;95690.66;;;12.66;100.00
8075;BME280;4080;42.676;23.372;2022-10-31T05:16:09;95691.47;;;13.02;100.00
8075;BME280;4080;42.676;23.372;2022-10-31T05:18:36;95702.25;;;13.67;100.00
8075;BME280;4080;42.676;23.372;2022-10-31T05:21:03;95705.66;;;14.42;100.00
8075;BME280;4080;42.676;23.372;2022-10-31T05:23:29;95710.88;;;14.97;100.00
8075;BME280;4080;42.676;23.372;2022-10-31T05:25:56;95710.34;;;14.95;100.00
8075;BME280;4080;42.676;23.372;2022-10-31T05:28:23;95717.19;;;14.72;100.00
8075;BME280;4080;42.676;23.372;2022-10-31T05:30:49;95712.03;;;14.36;100.00
8075;BME280;4080;42.676;23.372;2022-10-31T05:33:18;95718.47;;;14.25;100.00
8075;BME280;4080;42.676;23.372;2022-10-31T05:35:44;95716.41;;;14.17;100.00
8075;BME280;4080;42.676;23.372;2022-10-31T05:38:11;95717.50;;;14.01;100.00
8075;BME280;4080;42.676;23.372;2022-10-31T05:40:38;95706.47;;;13.78;100.00
8075;BME280;4080;42.676;23.372;2022-10-31T05:43:04;95717.63;;;13.70;100.00
8075;BME280;4080;42.676;23.372;2022-10-31T05:45:31;95720.81;;;13.62;100.00
8075;BME280;4080;42.676;23.372;2022-10-31T05:47:59;95717.13;;;13.58;100.00
8075;BME280;4080;42.676;23.372;2022-10-31T05:50:30;95705.44;;;13.69;100.00
8075;BME280;4080;42.676;23.372;2022-10-31T05:52:58;95728.91;;;14.11;100.00
8075;BME280;4080;42.676;23.372;2022-10-31T05:55:26;95726.63;;;14.49;100.00
8075;BME280;4080;42.676;23.372;2022-10-31T05:57:53;95724.41;;;15.00;100.00
8075;BME280;4080;42.676;23.372;2022-10-31T06:00:20;95720.44;;;15.32;100.00
8075;BME280;4080;42.676;23.372;2022-10-31T06:02:47;95745.19;;;15.85;100.00
8075;BME280;4080;42.676;23.372;2022-10-31T06:05:14;95745.03;;;16.24;100.00
8075;BME280;4080;42.676;23.372;2022-10-31T06:07:43;95749.78;;;16.70;100.00
8075;BME280;4080;42.676;23.372;2022-10-31T06:10:09;95752.69;;;17.06;100.00
8075;BME280;4080;42.676;23.372;2022-10-31T06:12:36;95756.47;;;17.37;99.31
8075;BME280;4080;42.676;23.372;2022-10-31T06:15:05;95759.28;;;17.60;97.60
8075;BME280;4080;42.676;23.372;2022-10-31T06:17:32;95759.78;;;17.81;96.37
8075;BME280;4080;42.676;23.372;2022-10-31T06:19:59;95762.66;;;18.12;95.35
8075;BME280;4080;42.676;23.372;2022-10-31T06:22:25;95765.22;;;18.44;92.56
8075;BME280;4080;42.676;23.372;2022-10-31T06:24:53;95771.94;;;18.69;91.05
8075;BME280;4080;42.676;23.372;2022-10-31T06:27:20;95783.16;;;18.93;88.98
8075;BME280;4080;42.676;23.372;2022-10-31T06:29:47;95789.94;;;19.13;88.36
8075;BME280;4080;42.676;23.372;2022-10-31T06:32:14;95792.94;;;19.34;87.08
8075;BME280;4080;42.676;23.372;2022-10-31T06:34:41;95792.63;;;19.58;85.91
8075;BME280;4080;42.676;23.372;2022-10-31T06:37:11;95790.28;;;19.88;84.86
8075;BME280;4080;42.676;23.372;2022-10-31T06:39:38;95798.44;;;20.13;83.11
8075;BME280;4080;42.676;23.372;2022-10-31T06:42:06;95766.13;;;20.10;82.14
8075;BME280;4080;42.676;23.372;2022-10-31T06:44:33;95792.66;;;20.51;80.66
8075;BME280;4080;42.676;23.372;2022-10-31T06:47:00;95794.88;;;20.66;79.25
8075;BME280;4080;42.676;23.372;2022-10-31T06:49:26;95790.63;;;20.74;78.20
8075;BME280;4080;42.676;23.372;2022-10-31T06:51:53;95788.59;;;20.80;78.43
8075;BME280;4080;42.676;23.372;2022-10-31T06:54:20;95801.56;;;20.95;78.40
8075;BME280;4080;42.676;23.372;2022-10-31T06:56:47;95793.38;;;21.17;77.61
8075;BME280;4080;42.676;23.372;2022-10-31T06:59:15;95799.38;;;21.31;76.98
8075;BME280;4080;42.676;23.372;2022-10-31T07:01:43;95797.16;;;21.59;76.33
8075;BME280;4080;42.676;23.372;2022-10-31T07:04:10;95796.75;;;21.95;75.36
8075;BME280;4080;42.676;23.372;2022-10-31T07:06:37;95798.91;;;22.19;73.59
8075;BME280;4080;42.676;23.372;2022-10-31T07:09:04;95781.56;;;22.17;72.88
8075;BME280;4080;42.676;23.372;2022-10-31T07:11:30;95793.31;;;22.33;72.58
8075;BME280;4080;42.676;23.372;2022-10-31T07:13:57;95800.47;;;22.29;71.87
8075;BME280;4080;42.676;23.372;2022-10-31T07:16:25;95796.53;;;22.26;72.17
8075;BME280;4080;42.676;23.372;2022-10-31T07:18:52;95794.81;;;22.22;72.48
8075;BME280;4080;42.676;23.372;2022-10-31T07:21:19;95772.28;;;22.06;71.94
8075;BME280;4080;42.676;23.372;2022-10-31T07:23:47;95779.31;;;22.19;72.19
8075;BME280;4080;42.676;23.372;2022-10-31T07:26:14;95783.69;;;22.32;72.14
8075;BME280;4080;42.676;23.372;2022-10-31T07:28:41;95779.03;;;22.50;70.86
8075;BME280;4080;42.676;23.372;2022-10-31T07:31:07;95779.25;;;22.66;70.48
8075;BME280;4080;42.676;23.372;2022-10-31T07:33:35;95782.31;;;22.85;69.42
8075;BME280;4080;42.676;23.372;2022-10-31T07:36:02;95781.19;;;22.86;70.30
8075;BME280;4080;42.676;23.372;2022-10-31T07:38:29;95782.09;;;22.99;69.11
8075;BME280;4080;42.676;23.372;2022-10-31T07:40:56;95781.63;;;22.97;68.39
8075;BME280;4080;42.676;23.372;2022-10-31T07:43:22;95783.03;;;22.94;68.64
8075;BME280;4080;42.676;23.372;2022-10-31T07:45:50;95780.88;;;22.87;69.25
8075;BME280;4080;42.676;23.372;2022-10-31T07:48:17;95779.06;;;22.71;70.38
8075;BME280;4080;42.676;23.372;2022-10-31T07:50:45;95770.63;;;22.51;70.94
8075;BME280;4080;42.676;23.372;2022-10-31T07:53:13;95768.88;;;22.55;71.54
8075;BME280;4080;42.676;23.372;2022-10-31T07:55:40;95773.03;;;22.74;70.60
8075;BME280;4080;42.676;23.372;2022-10-31T07:58:08;95789.06;;;22.91;69.19
8075;BME280;4080;42.676;23.372;2022-10-31T08:00:36;95769.41;;;22.99;70.18
8075;BME280;4080;42.676;23.372;2022-10-31T08:03:04;95778.22;;;23.29;69.67
8075;BME280;4080;42.676;23.372;2022-10-31T08:05:32;95789.38;;;23.52;67.83
8075;BME280;4080;42.676;23.372;2022-10-31T08:08:00;95799.13;;;23.65;67.46
8075;BME280;4080;42.676;23.372;2022-10-31T08:10:27;95791.06;;;23.77;67.27
8075;BME280;4080;42.676;23.372;2022-10-31T08:12:58;95779.97;;;23.79;66.82
8075;BME280;4080;42.676;23.372;2022-10-31T08:15:25;95782.94;;;24.10;65.78
8075;BME280;4080;42.676;23.372;2022-10-31T08:17:52;95781.78;;;24.32;66.29
8075;BME280;4080;42.676;23.372;2022-10-31T08:20:20;95788.97;;;24.53;64.17
8075;BME280;4080;42.676;23.372;2022-10-31T08:22:54;95789.53;;;24.58;63.88
8075;BME280;4080;42.676;23.372;2022-10-31T08:25:23;95792.44;;;24.65;64.52
8075;BME280;4080;42.676;23.372;2022-10-31T08:27:51;95782.41;;;24.90;63.72
8075;BME280;4080;42.676;23.372;2022-10-31T08:30:18;95781.28;;;25.16;62.65
8075;BME280;4080;42.676;23.372;2022-10-31T08:32:46;95784.78;;;25.44;61.46
8075;BME280;4080;42.676;23.372;2022-10-31T08:35:13;95791.09;;;25.64;60.88
8075;BME280;4080;42.676;23.372;2022-10-31T08:37:40;95783.34;;;25.90;60.18
8075;BME280;4080;42.676;23.372;2022-10-31T08:40:08;95785.72;;;26.23;57.94
8075;BME280;4080;42.676;23.372;2022-10-31T08:42:36;95783.50;;;26.41;57.58
8075;BME280;4080;42.676;23.372;2022-10-31T08:45:03;95780.47;;;26.62;57.07
8075;BME280;4080;42.676;23.372;2022-10-31T08:47:30;95779.09;;;26.68;55.63
8075;BME280;4080;42.676;23.372;2022-10-31T08:49:57;95775.88;;;26.47;56.07
8075;BME280;4080;42.676;23.372;2022-10-31T08:52:24;95782.00;;;26.44;57.82
8075;BME280;4080;42.676;23.372;2022-10-31T08:54:51;95759.38;;;26.52;56.56
8075;BME280;4080;42.676;23.372;2022-10-31T08:57:18;95778.38;;;26.71;55.80
8075;BME280;4080;42.676;23.372;2022-10-31T08:59:46;95775.53;;;26.64;56.47
8075;BME280;4080;42.676;23.372;2022-10-31T09:02:13;95767.84;;;26.66;56.79
8075;BME280;4080;42.676;23.372;2022-10-31T09:04:39;95776.78;;;26.86;55.98
8075;BME280;4080;42.676;23.372;2022-10-31T09:07:06;95774.06;;;27.02;55.47
8075;BME280;4080;42.676;23.372;2022-10-31T09:09:33;95772.50;;;27.20;55.14
8075;BME280;4080;42.676;23.372;2022-10-31T09:11:59;95766.31;;;27.39;54.71
8075;BME280;4080;42.676;23.372;2022-10-31T09:14:26;95772.59;;;27.43;53.24
8075;BME280;4080;42.676;23.372;2022-10-31T09:16:54;95760.41;;;27.33;53.17
8075;BME280;4080;42.676;23.372;2022-10-31T09:19:21;95771.50;;;27.47;54.27
8075;BME280;4080;42.676;23.372;2022-10-31T09:21:52;95761.69;;;27.59;53.82
8075;BME280;4080;42.676;23.372;2022-10-31T09:24:18;95770.53;;;27.75;53.85
8075;BME280;4080;42.676;23.372;2022-10-31T09:26:45;95769.91;;;27.85;53.61
8075;BME280;4080;42.676;23.372;2022-10-31T09:29:12;95764.41;;;28.01;52.82
8075;BME280;4080;42.676;23.372;2022-10-31T09:31:38;95742.13;;;27.88;52.49
8075;BME280;4080;42.676;23.372;2022-10-31T09:34:07;95765.50;;;27.96;51.35
8075;BME280;4080;42.676;23.372;2022-10-31T09:36:33;95737.56;;;27.73;52.17
8075;BME280;4080;42.676;23.372;2022-10-31T09:39:00;95775.50;;;27.92;52.24
8075;BME280;4080;42.676;23.372;2022-10-31T09:41:36;95772.00;;;27.92;52.67
8075;BME280;4080;42.676;23.372;2022-10-31T09:44:14;95766.34;;;28.00;52.36
8075;BME280;4080;42.676;23.372;2022-10-31T09:46:52;95761.69;;;28.01;51.34
8075;BME280;4080;42.676;23.372;2022-10-31T09:49:35;95724.84;;;27.77;52.01
8075;BME280;4080;42.676;23.372;2022-10-31T09:52:04;95766.03;;;28.05;52.13
8075;BME280;4080;42.676;23.372;2022-10-31T09:57:05;95760.09;;;28.19;52.00
8075;BME280;4080;42.676;23.372;2022-10-31T09:59:39;95760.69;;;28.32;51.24
8075;BME280;4080;42.676;23.372;2022-10-31T10:02:13;95756.72;;;28.49;50.83
8075;BME280;4080;42.676;23.372;2022-10-31T10:04:49;95754.75;;;28.75;50.63
8075;BME280;4080;42.676;23.372;2022-10-31T10:07:23;95751.47;;;28.86;50.53
8075;BME280;4080;42.676;23.372;2022-10-31T10:09:52;95740.28;;;28.91;50.35
8075;BME280;4080;42.676;23.372;2022-10-31T10:12:28;95742.94;;;28.87;50.16
8075;BME280;4080;42.676;23.372;2022-10-31T10:15:16;95742.63;;;28.92;49.15
8075;BME280;4080;42.676;23.372;2022-10-31T10:17:55;95733.09;;;28.79;49.67
8075;BME280;4080;42.676;23.372;2022-10-31T10:20:31;95723.53;;;28.85;49.39
8075;BME280;4080;42.676;23.372;2022-10-31T10:23:15;95723.53;;;28.85;48.44
8075;BME280;4080;42.676;23.372;2022-10-31T10:25:51;95728.56;;;28.60;49.33
8075;BME280;4080;42.676;23.372;2022-10-31T10:28:22;95683.75;;;28.21;51.01
8075;BME280;4080;42.676;23.372;2022-10-31T10:30:52;95713.69;;;28.51;50.35
8075;BME280;4080;42.676;23.372;2022-10-31T10:33:21;95721.66;;;28.66;49.42
8075;BME280;4080;42.676;23.372;2022-10-31T10:35:54;95698.72;;;28.60;49.27
8075;BME280;4080;42.676;23.372;2022-10-31T10:38:26;95703.81;;;28.65;49.03
8075;BME280;4080;42.676;23.372;2022-10-31T10:40:54;95710.16;;;28.76;47.83
8075;BME280;4080;42.676;23.372;2022-10-31T10:43:24;95699.56;;;28.94;48.18
8075;BME280;4080;42.676;23.372;2022-10-31T10:46:06;95690.31;;;28.99;46.88
8075;BME280;4080;42.676;23.372;2022-10-31T10:49:00;95683.31;;;28.98;47.59
8075;BME280;4080;42.676;23.372;2022-10-31T10:51:38;95682.97;;;28.99;47.01
8075;BME280;4080;42.676;23.372;2022-10-31T10:54:20;95691.88;;;29.00;46.56
8075;BME280;4080;42.676;23.372;2022-10-31T10:57:00;95692.81;;;29.11;46.50
8075;BME280;4080;42.676;23.372;2022-10-31T10:59:31;95695.28;;;29.23;46.52
8075;BME280;4080;42.676;23.372;2022-10-31T11:01:58;95690.34;;;29.36;46.17
8075;BME280;4080;42.676;23.372;2022-10-31T11:04:28;95686.19;;;29.42;44.99
8075;BME280;4080;42.676;23.372;2022-10-31T11:07:03;95693.06;;;29.36;45.35
8075;BME280;4080;42.676;23.372;2022-10-31T11:09:30;95683.72;;;29.33;46.15
8075;BME280;4080;42.676;23.372;2022-10-31T11:11:58;95682.38;;;29.47;46.77
8075;BME280;4080;42.676;23.372;2022-10-31T11:14:25;95680.91;;;29.56;46.54
8075;BME280;4080;42.676;23.372;2022-10-31T11:16:55;95676.72;;;29.66;46.27
8075;BME280;4080;42.676;23.372;2022-10-31T11:19:24;95640.56;;;29.25;43.47
8075;BME280;4080;42.676;23.372;2022-10-31T11:21:51;95643.00;;;29.00;44.96
8075;BME280;4080;42.676;23.372;2022-10-31T11:24:21;95659.09;;;29.16;45.73
8075;BME280;4080;42.676;23.372;2022-10-31T11:26:49;95664.22;;;29.24;45.63
8075;BME280;4080;42.676;23.372;2022-10-31T11:29:20;95666.38;;;29.08;45.13
8075;BME280;4080;42.676;23.372;2022-10-31T11:31:51;95654.59;;;28.97;44.89
8075;BME280;4080;42.676;23.372;2022-10-31T11:34:31;95658.88;;;28.98;45.77
8075;BME280;4080;42.676;23.372;2022-10-31T11:37:03;95648.97;;;28.83;46.23
8075;BME280;4080;42.676;23.372;2022-10-31T11:39:32;95649.44;;;28.58;46.45
8075;BME280;4080;42.676;23.372;2022-10-31T11:42:06;95635.06;;;28.28;47.54
8075;BME280;4080;42.676;23.372;2022-10-31T11:44:33;95650.16;;;28.25;47.75
8075;BME280;4080;42.676;23.372;2022-10-31T11:47:02;95646.66;;;28.02;48.34
8075;BME280;4080;42.676;23.372;2022-10-31T11:49:31;95651.50;;;27.66;48.94
8075;BME280;4080;42.676;23.372;2022-10-31T11:52:01;95630.06;;;27.38;48.78
8075;BME280;4080;42.676;23.372;2022-10-31T11:54:36;95642.50;;;27.20;50.06
8075;BME280;4080;42.676;23.372;2022-10-31T11:57:21;95634.44;;;26.85;52.12
8075;BME280;4080;42.676;23.372;2022-10-31T11:59:51;95623.72;;;26.69;53.45
8075;BME280;4080;42.676;23.372;2022-10-31T12:02:19;95604.31;;;26.48;53.06
8075;BME280;4080;42.676;23.372;2022-10-31T12:04:50;95624.31;;;26.63;53.24
8075;BME280;4080;42.676;23.372;2022-10-31T12:07:18;95614.13;;;26.56;52.96
8075;BME280;4080;42.676;23.372;2022-10-31T12:09:46;95623.53;;;26.43;53.07
8075;BME280;4080;42.676;23.372;2022-10-31T12:12:45;95621.53;;;26.24;54.13
8075;BME280;4080;42.676;23.372;2022-10-31T12:15:27;95619.13;;;26.19;54.13
8075;BME280;4080;42.676;23.372;2022-10-31T12:18:12;95613.13;;;26.10;54.67
8075;BME280;4080;42.676;23.372;2022-10-31T12:20:53;95620.38;;;25.90;54.99
8075;BME280;4080;42.676;23.372;2022-10-31T12:23:28;95619.09;;;25.84;54.95
8075;BME280;4080;42.676;23.372;2022-10-31T12:26:09;95610.81;;;25.77;55.17
8075;BME280;4080;42.676;23.372;2022-10-31T12:29:11;95619.69;;;25.93;55.19
8075;BME280;4080;42.676;23.372;2022-10-31T12:31:55;95622.09;;;25.98;54.77
8075;BME280;4080;42.676;23.372;2022-10-31T12:34:44;95613.41;;;25.89;54.82
8075;BME280;4080;42.676;23.372;2022-10-31T12:37:25;95614.66;;;25.76;55.46
8075;BME280;4080;42.676;23.372;2022-10-31T12:40:05;95604.97;;;25.75;55.36
8075;BME280;4080;42.676;23.372;2022-10-31T12:42:49;95612.19;;;25.71;55.64
8075;BME280;4080;42.676;23.372;2022-10-31T12:45:36;95610.44;;;25.62;56.07
8075;BME280;4080;42.676;23.372;2022-10-31T12:48:20;95612.00;;;25.63;55.94
8075;BME280;4080;42.676;23.372;2022-10-31T12:50:57;95609.41;;;25.67;56.12
8075;BME280;4080;42.676;23.372;2022-10-31T12:53:37;95605.09;;;25.66;56.48
8075;BME280;4080;42.676;23.372;2022-10-31T12:56:18;95598.47;;;25.63;57.09
8075;BME280;4080;42.676;23.372;2022-10-31T12:58:53;95611.41;;;25.70;56.92
8075;BME280;4080;42.676;23.372;2022-10-31T13:01:25;95609.06;;;25.68;56.20
8075;BME280;4080;42.676;23.372;2022-10-31T13:03:58;95610.50;;;25.66;56.74
8075;BME280;4080;42.676;23.372;2022-10-31T13:06:33;95611.66;;;25.65;56.53
8075;BME280;4080;42.676;23.372;2022-10-31T13:09:02;95611.13;;;25.59;56.42
8075;BME280;4080;42.676;23.372;2022-10-31T13:11:35;95602.25;;;25.59;56.76
8075;BME280;4080;42.676;23.372;2022-10-31T13:14:07;95616.78;;;25.54;57.12
8075;BME280;4080;42.676;23.372;2022-10-31T13:16:37;95611.66;;;25.49;56.99
8075;BME280;4080;42.676;23.372;2022-10-31T13:19:21;95610.78;;;25.45;56.98
8075;BME280;4080;42.676;23.372;2022-10-31T13:21:55;95608.09;;;25.45;58.40
8075;BME280;4080;42.676;23.372;2022-10-31T13:24:30;95599.97;;;25.45;58.96
8075;BME280;4080;42.676;23.372;2022-10-31T13:27:02;95589.31;;;25.36;58.42